createdAt,value
2023-02-11T00:05:37.975Z,69.80
2023-02-11T00:10:34.389Z,74.45
2023-02-11T00:15:30.683Z,63.40
2023-02-11T00:20:27.104Z,65.57
2023-02-11T00:25:23.401Z,76.70
2023-02-11T00:30:19.877Z,61.08
2023-02-11T00:35:16.441Z,72.20
2023-02-11T00:40:12.933Z,69.68
2023-02-11T00:45:09.962Z,72.97
2023-02-11T00:50:07.541Z,67.47
2023-02-11T00:55:04.083Z,68.68
2023-02-11T01:00:00.426Z,73.47
2023-02-11T01:04:56.792Z,77.38
2023-02-11T01:09:53.784Z,72.63
2023-02-11T01:14:50.237Z,79.53
2023-02-11T01:19:46.637Z,73.18
2023-02-11T01:24:43.018Z,92.28
2023-02-11T01:29:39.318Z,83.38
2023-02-11T01:34:35.659Z,89.93
2023-02-11T01:39:35.193Z,81.88
2023-02-11T01:44:34.955Z,87.10
2023-02-11T01:49:35.169Z,82.45
2023-02-11T01:54:55.708Z,84.95
2023-02-11T02:00:26.476Z,90.05
2023-02-11T02:05:32.236Z,93.30
2023-02-11T02:10:29.100Z,94.75
2023-02-11T02:15:29.177Z,80.93
2023-02-11T02:20:55.384Z,89.60
2023-02-11T02:26:22.570Z,103.95
2023-02-11T02:31:40.745Z,86.45
2023-02-11T02:36:43.769Z,85.00
2023-02-11T02:41:41.948Z,87.82
2023-02-11T02:46:38.354Z,90.78
2023-02-11T02:52:12.599Z,79.53
2023-02-11T02:57:27.276Z,89.07
2023-02-11T03:02:35.377Z,91.25
2023-02-11T03:07:45.125Z,85.30
2023-02-11T03:12:44.477Z,87.32
2023-02-11T03:17:44.799Z,88.80
2023-02-11T03:22:50.809Z,93.88
2023-02-11T03:28:06.242Z,80.38
2023-02-11T03:33:24.793Z,85.43
2023-02-11T03:38:34.692Z,77.20
2023-02-11T03:43:35.782Z,88.43
2023-02-11T03:48:37.095Z,85.85
2023-02-11T03:53:34.156Z,83.07
2023-02-11T03:58:30.722Z,91.60
2023-02-11T04:03:27.079Z,72.05
2023-02-11T04:08:23.453Z,78.68
2023-02-11T04:13:19.764Z,64.75
2023-02-11T04:18:16.105Z,72.35
2023-02-11T04:23:12.610Z,68.82
2023-02-11T04:28:08.984Z,67.05
2023-02-11T04:33:05.322Z,67.03
2023-02-11T04:38:02.370Z,61.47
2023-02-11T04:42:58.719Z,62.28
2023-02-11T04:47:55.001Z,61.42
2023-02-11T04:52:51.309Z,69.32
2023-02-11T04:57:47.660Z,68.38
2023-02-11T05:02:44.079Z,68.07
2023-02-11T05:07:41.033Z,62.63
2023-02-11T05:12:37.402Z,67.18
2023-02-11T05:17:33.704Z,64.55
2023-02-11T05:22:30.174Z,65.25
2023-02-11T05:27:26.452Z,61.05
2023-02-11T05:32:23.060Z,53.35
2023-02-11T05:37:19.567Z,53.97
2023-02-11T05:42:16.058Z,54.50
2023-02-11T05:47:12.455Z,54.80
2023-02-11T05:52:08.825Z,65.10
2023-02-11T05:57:05.237Z,66.57
2023-02-11T06:02:02.364Z,61.78
2023-02-11T06:06:58.720Z,58.97
2023-02-11T06:11:55.173Z,61.85
2023-02-11T06:16:51.622Z,59.78
2023-02-11T06:21:48.073Z,61.55
2023-02-11T06:26:44.479Z,65.65
2023-02-11T06:31:41.127Z,64.93
2023-02-11T06:36:39.848Z,58.17
2023-02-11T06:41:36.419Z,64.15
2023-02-11T06:46:33.045Z,65.75
2023-02-11T06:51:29.487Z,58.53
2023-02-11T06:56:27.497Z,68.35
2023-02-11T07:01:26.259Z,68.87
2023-02-11T07:11:24.631Z,69.95
2023-02-11T07:16:21.241Z,72.57
2023-02-11T07:21:20.692Z,69.85
2023-02-11T07:26:19.753Z,79.00
2023-02-11T07:31:21.983Z,78.57
2023-02-11T07:36:18.528Z,84.03
2023-02-11T07:41:18.211Z,86.68
2023-02-11T07:46:21.675Z,72.07
2023-02-11T07:51:23.325Z,93.03
2023-02-11T07:56:21.188Z,84.40
2023-02-11T08:01:22.419Z,92.70
2023-02-11T08:06:21.030Z,88.55
2023-02-11T08:11:28.262Z,87.00
2023-02-11T08:16:27.649Z,87.38
2023-02-11T08:21:24.341Z,88.18
2023-02-11T08:26:22.912Z,88.50
2023-02-11T08:31:25.262Z,90.75
2023-02-11T08:36:24.843Z,100.18
2023-02-11T08:41:21.294Z,100.13
2023-02-11T08:46:19.654Z,104.93
2023-02-11T08:51:19.406Z,99.82
2023-02-11T08:56:17.345Z,106.47
2023-02-11T09:01:17.203Z,118.70
2023-02-11T09:06:14.270Z,118.78
2023-02-11T09:11:11.033Z,113.22
2023-02-11T09:16:08.659Z,109.07
2023-02-11T09:21:07.647Z,105.32
2023-02-11T09:26:09.214Z,96.05
2023-02-11T09:31:07.703Z,125.88
2023-02-11T09:36:06.047Z,108.60
2023-02-11T09:41:07.509Z,111.07
2023-02-11T09:46:04.945Z,129.45
2023-02-11T09:51:03.962Z,103.65
2023-02-11T09:56:02.771Z,126.30
2023-02-11T10:06:19.660Z,111.55
2023-02-11T10:11:32.685Z,107.38
2023-02-11T10:17:10.357Z,102.68
2023-02-11T10:22:19.981Z,110.95
2023-02-11T10:27:20.278Z,103.15
2023-02-11T10:32:44.061Z,106.20
2023-02-11T10:37:42.394Z,100.80
2023-02-11T10:42:44.224Z,111.53
2023-02-11T10:47:41.548Z,105.57
2023-02-11T10:52:37.862Z,104.93
2023-02-11T10:57:58.995Z,100.15
2023-02-11T11:02:58.281Z,102.80
2023-02-11T11:08:04.535Z,107.28
2023-02-11T11:13:01.031Z,115.65
2023-02-11T11:18:21.512Z,121.10
2023-02-11T11:23:22.719Z,102.82
2023-02-11T11:28:24.322Z,117.57
2023-02-11T11:33:27.974Z,112.55
2023-02-11T11:38:24.584Z,114.63
2023-02-11T11:43:23.232Z,126.70
2023-02-11T11:53:27.482Z,108.18
2023-02-11T11:58:23.981Z,116.85
2023-02-11T12:04:02.483Z,104.25
2023-02-11T12:14:37.981Z,108.60
2023-02-11T12:19:56.483Z,102.13
2023-02-11T12:25:30.831Z,93.80
2023-02-11T12:30:58.089Z,111.25
2023-02-11T12:36:42.219Z,104.78
2023-02-11T12:42:03.218Z,90.82
2023-02-11T12:47:22.323Z,81.97
2023-02-11T12:53:00.172Z,79.25
2023-02-11T12:57:59.536Z,81.07
2023-02-11T13:03:23.930Z,71.10
2023-02-11T13:08:33.616Z,59.50
2023-02-11T13:13:38.181Z,72.05
2023-02-11T13:18:57.470Z,72.32
2023-02-11T13:24:09.584Z,70.43
2023-02-11T13:29:30.435Z,68.55
2023-02-11T13:34:56.581Z,59.47
2023-02-11T13:40:20.230Z,66.97
2023-02-11T13:45:42.983Z,63.72
2023-02-11T13:50:50.652Z,59.25
2023-02-11T13:55:51.274Z,68.40
2023-02-11T14:00:50.999Z,62.38
2023-02-11T14:06:29.383Z,59.22
2023-02-11T14:11:41.518Z,54.10
2023-02-11T14:17:06.980Z,55.08
2023-02-11T14:22:05.949Z,63.05
2023-02-11T14:27:15.990Z,59.42
2023-02-11T14:32:38.569Z,60.47
2023-02-11T14:37:50.929Z,60.45
2023-02-11T14:42:47.725Z,52.08
2023-02-11T14:47:52.657Z,57.97
2023-02-11T14:52:49.714Z,56.60
2023-02-11T14:57:49.407Z,57.33
2023-02-11T15:02:45.959Z,58.03
2023-02-11T15:07:51.363Z,56.15
2023-02-11T15:12:49.379Z,51.63
2023-02-11T15:17:46.185Z,51.72
2023-02-11T15:22:46.108Z,54.67
2023-02-11T15:27:48.372Z,52.45
2023-02-11T15:32:45.168Z,53.47
2023-02-11T15:37:41.679Z,57.10
2023-02-11T15:42:51.875Z,48.10
2023-02-11T15:47:52.058Z,48.17
2023-02-11T15:52:49.724Z,48.03
2023-02-11T15:57:53.010Z,51.60
2023-02-11T16:02:50.901Z,45.47
2023-02-11T16:07:50.357Z,46.03
2023-02-11T16:13:05.829Z,49.33
2023-02-11T16:18:12.967Z,43.25
2023-02-11T16:23:21.751Z,50.60
2023-02-11T16:28:18.146Z,44.42
2023-02-11T16:33:14.542Z,45.83
2023-02-11T16:38:11.136Z,55.35
2023-02-11T16:43:08.216Z,47.08
2023-02-11T16:48:08.798Z,52.30
2023-02-11T16:53:06.398Z,54.17
2023-02-11T16:58:02.800Z,40.95
2023-02-11T17:02:59.248Z,47.95
2023-02-11T17:07:56.195Z,52.47
2023-02-11T17:12:53.420Z,47.00
2023-02-11T17:17:49.811Z,51.20
2023-02-11T17:22:46.157Z,42.40
2023-02-11T17:27:42.647Z,54.35
2023-02-11T17:32:38.961Z,47.65
2023-02-11T17:37:35.276Z,53.60
2023-02-11T17:42:31.586Z,54.03
2023-02-11T17:47:28.038Z,53.42
2023-02-11T17:52:26.537Z,48.83
2023-02-11T17:57:22.858Z,45.17
2023-02-11T18:02:19.349Z,43.88
2023-02-11T18:07:15.756Z,53.45
2023-02-11T18:12:12.107Z,50.33
2023-02-11T18:17:08.675Z,56.95
2023-02-11T18:22:05.040Z,52.60
2023-02-11T18:27:01.723Z,48.70
2023-02-11T18:31:58.247Z,54.53
2023-02-11T18:36:54.619Z,51.13
2023-02-11T18:41:54.437Z,52.70
2023-02-11T18:46:52.020Z,58.80
2023-02-11T18:51:48.366Z,50.85
2023-02-11T18:56:44.908Z,59.33
2023-02-11T19:01:43.357Z,55.33
2023-02-11T19:06:39.863Z,51.60
2023-02-11T19:11:49.865Z,50.75
2023-02-11T19:16:47.575Z,55.50
2023-02-11T19:21:45.467Z,55.40
2023-02-11T19:26:42.918Z,58.97
2023-02-11T19:31:39.430Z,51.75
2023-02-11T19:36:36.051Z,57.15
2023-02-11T19:41:33.640Z,53.20
2023-02-11T19:46:33.230Z,52.13
2023-02-11T19:51:30.803Z,54.65
2023-02-11T19:56:30.535Z,53.78
2023-02-11T20:01:27.002Z,54.22
2023-02-11T20:06:29.656Z,58.03
2023-02-11T20:11:28.179Z,49.50
2023-02-11T20:21:41.330Z,58.65
2023-02-11T20:26:40.858Z,53.30
2023-02-11T20:31:37.390Z,49.70
2023-02-11T20:36:35.679Z,52.35
2023-02-11T20:41:34.323Z,50.38
2023-02-11T20:51:31.667Z,43.33
2023-02-11T21:01:30.003Z,43.87
2023-02-11T21:06:31.146Z,52.25
2023-02-11T21:11:27.815Z,45.75
2023-02-11T21:16:24.478Z,46.72
2023-02-11T21:21:21.371Z,41.25
2023-02-11T21:26:18.434Z,50.47
2023-02-11T21:31:21.837Z,42.55
2023-02-11T21:36:18.696Z,53.50
2023-02-11T21:41:16.061Z,46.50
2023-02-11T21:46:14.589Z,51.08
2023-02-11T21:51:24.729Z,52.75
2023-02-11T21:56:21.245Z,49.15
2023-02-11T22:01:21.428Z,46.55
2023-02-11T22:06:23.396Z,52.47
2023-02-11T22:11:20.529Z,48.63
2023-02-11T22:16:17.014Z,48.33
2023-02-11T22:21:17.606Z,54.58
2023-02-11T22:26:19.437Z,50.13
2023-02-11T22:31:22.158Z,50.40
2023-02-11T22:36:22.237Z,50.65
2023-02-11T22:41:19.125Z,49.95
2023-02-11T22:46:18.814Z,49.30
2023-02-11T22:51:19.313Z,52.33
2023-02-11T22:56:16.032Z,49.65
2023-02-11T23:01:13.232Z,49.30
2023-02-11T23:06:10.675Z,48.67
2023-02-11T23:11:12.256Z,51.67
2023-02-11T23:16:12.745Z,58.10
2023-02-11T23:21:13.427Z,51.60
2023-02-11T23:26:15.284Z,53.00
2023-02-11T23:31:15.662Z,56.00
2023-02-11T23:36:12.618Z,47.90
2023-02-11T23:41:09.147Z,53.75
2023-02-11T23:46:06.226Z,50.88
2023-02-11T23:51:03.657Z,56.38
2023-02-11T23:56:00.067Z,53.28
